Get Adobe Flash player

РУС

ENG

 
  Pireps - S7
 

Рейс SBI983

  • Выполнял: Andrey Mamontov
  • Аэропорт отправления: Minsk (UMMS)
  • Аэропорт назначения: Domodedovo Airport (UUDD)
  • Тип ВС: A320-214 (VQ-BPL)
  • Время полёта: 01.24
  • Дата полёта: 06.09.2017
  • Маршрут: BERIS M863 SODKO P26 ABKOM T52 MOSON A104 FK
  • Статус: Одобрен

Детали полёта
Gross Revenue:
(137 load / $ 500.00 per unit
$ 68, 500.00
Fuel Cost:
(3148 fuel used @ 5.1 / unit)
$ 16, 054.80


Дополнительная информация о полёте:

Лог

Aircraft Used in flight is Airbus A320 Siberia VP-BDT
18:35 Boarding
18:35 Navigation Lights ON at 680 AGL
18:35 Brakes are On
18:39 Beacon Lights ON at 680 AGL
18:43 Engine 2 Started
18:43 Engine 1 Started
18:44 Spoilers Armed
18:45Flaps 2 Selected at 680ft and 9kts
18:45 Taxi Lights ON at 680 AGL
18:45 Brakes are Released
18:51 Landing Lights ON at 680 AGL
18:51 Strobe Lights ON at 680 AGL
18:53 You Took off @ 141 Knots and Flaps at Position 2
Departure Weather
UMMS 061146Z 34006MPS 6000 OVC007 10/09 Q1006 R31/290055 NOSIGrn
18:53 Paused
18:53 Landing Gear Up @ 152 Knots and 750 Feet
18:53 Taxi Lights OFF at 750 AGL
18:53 Unpaused
18:53 Spoilers Disarmed
18:53Flaps Retracted at 2260ft and 192kts
18:55 Landing Lights OFF at 8160 AGL
19:09 TOC Reached
19:44 You exceeded maximum bank angle
19:46 Landing Lights ON at 9670 AGL
19:49Flaps 1 Selected at 6320ft and 194kts
19:53Flaps 2 Selected at 3540ft and 170kts
19:53Flaps 3 Selected at 3540ft and 170kts
19:54Flaps 4 Selected at 3180ft and 145kts
19:54Flaps 5 Selected at 3210ft and 141kts
19:56 Landing Gear Down @ 140 Knots and 2550 Feet
19:57 Spoilers Armed
19:57 Taxi Lights ON at 2340 AGL
19:59 You Landed @ 136 Knots and with -300 Vertical Speed
Arrival Weather
UUDD 061100Z 11005MPS 4000 -DZ BR OVC002 12/11 Q1009 R88/290095 NOSIGrn
19:59 Spoilers Disarmed
19:59 Paused
20:00Flaps Retracted at 600ft and 24kts
20:00 Landing Lights OFF at 600 AGL
20:00 Strobe Lights OFF at 600 AGL
20:05 Unpaused
20:05 Paused
20:05 Unpaused
20:05 Paused
20:05 Brakes are On
20:05 Unpaused
Pirep logged with S7 Tracking 1.0.0.13


!!! Превышение допустимого значения верстикальной скорости при посадке: -5%


Общая оценка полета : 95%




Route Map



 
 
   
 
Новости

18.08.2017 - Обновление S7 pad

С выходом версии P3d v4 наш клиент S7 pad мог не работать.
Нами проделана работа по оптимизации клиента и теперь доступна версия для P3d V4.
скачать новую версию клиента и установить FSUIPC5. Все есть в архиве.

   
 
Авторизация






Регистрация

Восстановить пароль?

Мы в соц. сетях

      



   
 

   
 



   
 


Яндекс.Метрика

www.va-s7.ru 2011-2017
Все права защищены.



Минуточку внимания!
Мы не имеем отношения к торговым маркам "S7" и "Globus" и их представителям.
Эмблемы на сайте являются собственностью соответствующих компаний.

аэронавигационная метеорологическая и любая другая информация с данного ресурса ни в коем случае не должна использоваться для реальных полетов